Time;durP1;ratioP1;P1;durP2;ratioP2;P2;SDS_P1;SDS_P2;PMS_P1;PMS_P2;Temp;Humidity;BMP_temperature;BMP_pressure;BME280_temperature;BME280_humidity;BME280_pressure;Samples;Min_cycle;Max_cycle;Signal;HPM_P1;HPM_P2
2021/04/07 00:01:46;;;;;;;2.72;0.98;;;;;;;3.31;53.94;96784.38;5107145;28;20036;-75
2021/04/07 00:04:11;;;;;;;3.75;1.35;;;;;;;3.34;53.78;96793.44;5111592;27;20027;-75
2021/04/07 00:06:41;;;;;;;2.78;1.00;;;;;;;3.29;53.91;96794.06;5092089;27;20482;-75
2021/04/07 00:09:08;;;;;;;4.00;1.58;;;;;;;3.35;53.86;96790.66;5059461;28;20081;-75
2021/04/07 00:11:34;;;;;;;1.83;1.05;;;;;;;3.39;53.63;96798.75;5104270;27;20392;-75
2021/04/07 00:14:01;;;;;;;3.30;1.20;;;;;;;3.29;53.97;96801.81;5091595;27;20109;-75
2021/04/07 00:16:26;;;;;;;2.85;1.20;;;;;;;3.30;53.81;96803.34;5094103;27;20390;-75
2021/04/07 00:18:51;;;;;;;3.28;0.70;;;;;;;3.34;53.92;96798.59;5102468;28;20435;-75
2021/04/07 00:21:17;;;;;;;3.08;0.98;;;;;;;3.30;53.65;96802.56;5096665;27;20174;-75
2021/04/07 00:23:42;;;;;;;2.17;1.08;;;;;;;3.28;54.29;96809.72;5087529;27;20039;-75
2021/04/07 00:26:08;;;;;;;2.78;1.10;;;;;;;3.34;53.72;96808.88;5098900;28;20372;-75
2021/04/07 00:28:33;;;;;;;4.25;0.90;;;;;;;3.32;54.03;96800.59;5109044;27;20118;-75
2021/04/07 00:30:59;;;;;;;2.03;1.20;;;;;;;3.28;53.81;96809.72;5093971;27;20058;-75
2021/04/07 00:33:24;;;;;;;4.20;1.40;;;;;;;3.37;53.67;96823.91;5110640;27;20080;-75
2021/04/07 00:35:50;;;;;;;1.83;0.85;;;;;;;3.37;53.90;96813.63;5071280;27;20603;-75
2021/04/07 00:38:15;;;;;;;3.88;1.73;;;;;;;3.32;53.88;96819.38;5087378;28;20081;-75
2021/04/07 00:40:41;;;;;;;3.33;1.23;;;;;;;3.39;53.67;96816.75;5083726;27;20067;-75
2021/04/07 00:43:06;;;;;;;2.78;0.70;;;;;;;3.17;53.76;96817.09;5104637;28;20042;-75
2021/04/07 00:45:32;;;;;;;3.45;1.30;;;;;;;3.34;53.70;96819.97;5084824;27;20036;-75
2021/04/07 00:47:58;;;;;;;3.90;1.17;;;;;;;3.40;53.70;96818.34;5076148;27;20067;-75
2021/04/07 00:50:25;;;;;;;2.17;0.90;;;;;;;3.33;53.30;96822.75;5076315;27;20426;-75
2021/04/07 00:52:50;;;;;;;2.92;0.80;;;;;;;3.33;53.40;96828.69;5087082;27;20027;-75
2021/04/07 00:55:18;;;;;;;1.27;0.80;;;;;;;3.18;53.37;96825.59;5091120;27;20232;-75
2021/04/07 00:57:45;;;;;;;2.58;0.95;;;;;;;3.23;52.25;96820.63;5062071;27;20023;-75
2021/04/07 01:00:11;;;;;;;5.60;1.00;;;;;;;3.35;52.91;96826.69;5075881;27;20070;-75
2021/04/07 01:02:38;;;;;;;3.25;0.85;;;;;;;3.15;53.25;96833.72;5084346;27;20375;-75
2021/04/07 01:05:04;;;;;;;1.38;0.73;;;;;;;3.35;52.71;96833.63;5061987;27;20538;-75
2021/04/07 01:07:29;;;;;;;2.40;1.00;;;;;;;3.25;52.79;96843.56;5089529;27;20027;-75
2021/04/07 01:09:55;;;;;;;1.55;0.70;;;;;;;3.30;52.66;96847.09;5100786;28;20054;-75
2021/04/07 01:12:20;;;;;;;1.63;0.70;;;;;;;3.32;52.25;96831.47;5104960;28;20106;-75
2021/04/07 01:14:45;;;;;;;2.55;1.40;;;;;;;3.32;53.42;96852.03;5065147;28;20028;-75
2021/04/07 01:17:12;;;;;;;2.40;1.23;;;;;;;3.15;54.31;96847.38;5107881;27;20042;-75
2021/04/07 01:19:37;;;;;;;2.65;1.05;;;;;;;3.23;52.41;96848.13;5090834;27;20534;-75
2021/04/07 01:22:03;;;;;;;2.17;0.70;;;;;;;3.22;52.11;96854.28;5096766;28;20133;-76
2021/04/07 01:24:30;;;;;;;1.58;0.80;;;;;;;2.96;53.69;96858.53;5102702;28;20011;-76
2021/04/07 01:26:56;;;;;;;2.83;0.82;;;;;;;3.16;52.56;96859.25;5085871;28;20031;-75
2021/04/07 01:29:21;;;;;;;2.08;0.50;;;;;;;2.95;53.41;96854.38;5085884;28;20032;-75
2021/04/07 01:31:50;;;;;;;2.42;0.90;;;;;;;3.03;52.83;96863.66;5108737;28;20027;-75
2021/04/07 01:34:18;;;;;;;2.25;1.00;;;;;;;2.96;52.72;96858.53;5085419;28;20481;-76
2021/04/07 01:36:44;;;;;;;2.15;0.85;;;;;;;3.08;52.91;96866.41;5097747;28;20494;-75
2021/04/07 01:39:09;;;;;;;2.25;0.80;;;;;;;3.08;52.47;96869.75;5061131;28;20293;-76
2021/04/07 01:41:35;;;;;;;1.80;0.68;;;;;;;3.12;51.98;96867.56;5093994;28;20101;-75
2021/04/07 01:44:01;;;;;;;1.58;0.70;;;;;;;2.97;52.79;96863.47;5095291;27;20023;-75
2021/04/07 01:46:27;;;;;;;2.63;0.93;;;;;;;3.12;51.88;96860.66;5094092;28;20367;-75
2021/04/07 01:48:52;;;;;;;2.72;0.90;;;;;;;3.20;51.63;96859.63;5097991;27;20023;-75
2021/04/07 01:51:18;;;;;;;2.40;0.70;;;;;;;3.33;50.99;96862.13;5107651;27;20039;-75
2021/04/07 01:53:43;;;;;;;2.03;0.98;;;;;;;3.15;51.16;96867.97;5111747;27;20049;-75
2021/04/07 01:56:09;;;;;;;2.65;0.50;;;;;;;3.13;51.07;96869.16;5108537;27;20035;-75
2021/04/07 01:58:38;;;;;;;1.42;0.50;;;;;;;2.91;51.73;96860.91;5073543;27;20126;-75
2021/04/07 02:01:03;;;;;;;1.17;0.50;;;;;;;3.31;50.54;96868.50;5094675;27;20036;-75
2021/04/07 02:03:29;;;;;;;5.20;1.48;;;;;;;3.34;50.12;96873.22;5103877;28;20027;-75
2021/04/07 02:05:54;;;;;;;1.10;0.52;;;;;;;3.23;50.88;96866.94;5105296;28;20088;-75
2021/04/07 02:08:19;;;;;;;2.67;0.73;;;;;;;3.37;50.63;96873.59;5072807;27;20058;-75
2021/04/07 02:10:45;;;;;;;3.00;1.20;;;;;;;3.41;50.22;96875.75;5102374;28;20039;-75
2021/04/07 02:13:10;;;;;;;3.45;1.30;;;;;;;3.42;50.47;96880.69;5084380;27;20462;-76
2021/04/07 02:15:36;;;;;;;3.92;1.20;;;;;;;3.41;50.75;96886.03;5095388;27;20098;-75
2021/04/07 02:18:01;;;;;;;2.85;0.77;;;;;;;3.37;50.75;96885.66;5090466;27;20046;-75
2021/04/07 02:20:27;;;;;;;2.25;0.80;;;;;;;3.46;50.92;96889.59;5080394;27;20042;-75
2021/04/07 02:22:53;;;;;;;2.92;1.00;;;;;;;3.44;50.99;96888.22;5073387;28;20027;-75
2021/04/07 02:25:18;;;;;;;1.77;0.88;;;;;;;3.42;51.34;96896.13;5088928;27;20125;-75
2021/04/07 02:27:43;;;;;;;2.45;0.80;;;;;;;3.29;52.24;96898.75;5113818;27;20542;-75
2021/04/07 02:30:12;;;;;;;2.08;1.23;;;;;;;3.27;51.17;96893.03;5107027;27;20039;-76
2021/04/07 02:32:38;;;;;;;2.92;0.85;;;;;;;3.32;51.54;96893.22;5107154;27;20019;-75
2021/04/07 02:35:04;;;;;;;1.58;0.88;;;;;;;3.34;51.87;96893.78;5081213;28;20096;-76
2021/04/07 02:37:29;;;;;;;1.17;0.77;;;;;;;3.29;51.35;96888.47;5107520;28;20060;-75
2021/04/07 02:39:55;;;;;;;3.10;1.00;;;;;;;3.28;51.25;96892.84;5112346;28;20073;-76
2021/04/07 02:42:22;;;;;;;1.50;0.95;;;;;;;3.11;51.42;96900.22;5109001;28;20553;-75
2021/04/07 02:44:47;;;;;;;5.18;0.80;;;;;;;2.83;52.15;96900.50;5096328;28;20040;-75
2021/04/07 02:47:13;;;;;;;2.90;0.90;;;;;;;3.08;51.36;96907.56;5105158;28;20083;-75
2021/04/07 02:49:38;;;;;;;1.42;0.80;;;;;;;2.98;50.44;96897.69;5120928;28;20531;-75
2021/04/07 02:52:04;;;;;;;2.25;0.90;;;;;;;2.88;51.08;96903.25;5066182;28;20031;-75
2021/04/07 02:54:29;;;;;;;0.98;0.50;;;;;;;3.05;50.03;96895.91;5123550;28;20034;-75
2021/04/07 02:56:55;;;;;;;1.85;0.70;;;;;;;2.92;50.55;96909.56;5094765;28;20027;-75
2021/04/07 02:59:21;;;;;;;2.92;0.75;;;;;;;3.00;50.29;96911.94;5095698;28;20088;-75
2021/04/07 03:01:46;;;;;;;2.90;0.75;;;;;;;2.91;49.83;96907.19;5094962;28;20038;-75
2021/04/07 03:04:13;;;;;;;2.35;0.90;;;;;;;2.85;50.34;96913.16;5129877;28;20023;-76
2021/04/07 03:06:38;;;;;;;3.00;0.70;;;;;;;2.96;49.83;96909.97;5089642;28;20035;-75
2021/04/07 03:09:04;;;;;;;1.63;0.75;;;;;;;2.96;49.61;96922.81;5110383;28;20359;-76
2021/04/07 03:11:30;;;;;;;1.90;0.60;;;;;;;2.85;49.97;96929.38;5111974;28;20023;-75
2021/04/07 03:13:55;;;;;;;3.92;0.70;;;;;;;2.97;49.71;96921.84;5097891;28;20020;-75
2021/04/07 03:16:21;;;;;;;1.88;0.63;;;;;;;3.02;49.50;96926.34;5114954;28;20035;-75
2021/04/07 03:18:46;;;;;;;3.95;1.08;;;;;;;2.87;49.23;96934.31;5085566;28;20036;-75
2021/04/07 03:21:12;;;;;;;1.20;0.45;;;;;;;2.87;49.42;96942.03;5108838;28;20085;-75
2021/04/07 03:23:37;;;;;;;2.45;0.68;;;;;;;2.85;49.94;96955.09;5088721;28;20035;-75
2021/04/07 03:26:03;;;;;;;1.38;0.70;;;;;;;2.80;49.41;96955.69;5099574;28;20031;-76
2021/04/07 03:28:29;;;;;;;1.75;0.50;;;;;;;2.75;48.92;96950.34;5093494;28;20031;-76
2021/04/07 03:30:54;;;;;;;1.02;0.65;;;;;;;2.80;49.02;96955.69;5111748;28;20038;-76
2021/04/07 03:33:31;;;;;;;3.15;0.52;;;;;;;2.52;49.04;96962.81;5040310;27;986204;-75
2021/04/07 03:35:58;;;;;;;2.97;0.95;;;;;;;2.80;48.66;96963.38;5108491;28;20035;-75
2021/04/07 03:38:23;;;;;;;1.98;1.13;;;;;;;2.76;50.02;96969.94;5105160;28;20046;-75
2021/04/07 03:40:49;;;;;;;2.65;0.70;;;;;;;2.69;49.67;96976.88;5100247;28;20023;-75
2021/04/07 03:43:17;;;;;;;2.30;0.77;;;;;;;2.70;49.83;96975.84;5093516;27;20031;-75
2021/04/07 03:45:47;;;;;;;3.40;0.65;;;;;;;2.47;50.75;96973.69;5112717;27;20122;-76
2021/04/07 03:48:15;;;;;;;2.13;0.70;;;;;;;2.58;50.00;96980.78;5095798;27;20055;-75
2021/04/07 03:50:41;;;;;;;2.63;0.70;;;;;;;2.51;50.99;96985.16;5095345;27;20031;-75
2021/04/07 03:53:08;;;;;;;2.75;1.02;;;;;;;2.35;51.79;96988.91;5112333;27;20149;-75
2021/04/07 03:55:34;;;;;;;3.72;1.42;;;;;;;2.53;50.97;96984.97;5079440;28;20482;-76
2021/04/07 03:58:00;;;;;;;6.78;1.20;;;;;;;2.61;50.25;96989.91;5126356;27;20175;-75
2021/04/07 04:00:26;;;;;;;3.10;0.98;;;;;;;2.54;51.14;96995.03;5077702;28;20023;-75
2021/04/07 04:02:51;;;;;;;3.40;1.08;;;;;;;2.55;49.96;96988.94;5078443;27;20131;-76
2021/04/07 04:05:17;;;;;;;2.65;0.70;;;;;;;2.66;49.79;96991.88;5110007;27;20023;-76
2021/04/07 04:07:43;;;;;;;3.88;0.88;;;;;;;2.46;50.82;96981.59;5107669;27;20521;-76
2021/04/07 04:10:09;;;;;;;3.10;0.90;;;;;;;2.48;51.63;97000.97;5111706;27;20030;-76
2021/04/07 04:12:36;;;;;;;2.42;0.57;;;;;;;2.42;51.43;96992.28;5111725;27;20096;-76
2021/04/07 04:15:02;;;;;;;2.15;0.70;;;;;;;2.27;51.36;96999.38;5061894;28;20032;-75
2021/04/07 04:17:30;;;;;;;1.65;0.77;;;;;;;2.12;51.96;97004.66;5106508;27;20545;-75
2021/04/07 04:19:55;;;;;;;1.40;0.57;;;;;;;2.17;51.96;97011.78;5093710;27;20027;-75
2021/04/07 04:22:21;;;;;;;2.78;0.70;;;;;;;2.19;51.75;97012.38;5098447;27;20533;-75
2021/04/07 04:24:47;;;;;;;2.58;0.60;;;;;;;2.13;52.48;97026.81;5092684;27;20035;-75
2021/04/07 04:27:12;;;;;;;4.03;0.95;;;;;;;2.06;53.04;97023.44;5109329;27;20059;-75
2021/04/07 04:29:37;;;;;;;2.20;0.80;;;;;;;2.01;53.09;97036.84;5112262;27;20027;-76
2021/04/07 04:32:03;;;;;;;2.17;0.68;;;;;;;2.09;53.86;97037.66;5111438;27;20441;-75
2021/04/07 04:34:29;;;;;;;2.35;0.98;;;;;;;2.11;53.82;97038.25;5080955;27;20061;-75
2021/04/07 04:36:54;;;;;;;1.45;0.50;;;;;;;2.05;53.63;97025.19;5100149;27;20262;-75
2021/04/07 04:39:19;;;;;;;1.55;0.50;;;;;;;2.12;53.49;97040.63;5099805;28;20040;-75
2021/04/07 04:41:45;;;;;;;2.03;0.90;;;;;;;2.19;52.70;97043.19;5093477;28;20055;-75
2021/04/07 04:44:12;;;;;;;2.88;0.65;;;;;;;2.25;52.86;97045.00;5095595;27;20027;-75
2021/04/07 04:46:38;;;;;;;2.00;0.70;;;;;;;2.24;53.24;97048.56;5129702;27;20031;-75
2021/04/07 04:49:03;;;;;;;2.75;0.70;;;;;;;2.30;53.10;97047.00;5075615;28;20024;-75
2021/04/07 04:51:29;;;;;;;2.45;0.73;;;;;;;2.32;53.05;97052.72;5128502;27;20027;-75
2021/04/07 04:53:55;;;;;;;2.25;0.70;;;;;;;2.32;53.54;97052.72;5085863;28;20514;-75
2021/04/07 04:56:20;;;;;;;1.70;0.52;;;;;;;2.32;53.17;97053.53;5090278;27;20023;-75
2021/04/07 04:58:46;;;;;;;1.42;0.60;;;;;;;2.31;52.97;97056.28;5106932;28;20466;-75
2021/04/07 05:01:11;;;;;;;1.67;0.63;;;;;;;2.34;52.99;97066.16;5087653;28;20289;-75
2021/04/07 05:03:37;;;;;;;2.95;0.93;;;;;;;2.35;52.92;97068.56;5093238;27;20034;-75
2021/04/07 05:06:02;;;;;;;1.92;1.08;;;;;;;2.50;52.49;97070.16;5079124;27;20031;-75
2021/04/07 05:08:28;;;;;;;2.72;0.80;;;;;;;2.47;53.01;97066.22;5110481;27;20035;-75
2021/04/07 05:10:59;;;;;;;1.95;1.02;;;;;;;2.32;53.20;97084.34;5086351;27;20027;-75
2021/04/07 05:13:24;;;;;;;3.40;1.38;;;;;;;2.53;52.65;97073.13;5083189;28;20032;-75
2021/04/07 05:15:50;;;;;;;2.60;0.98;;;;;;;2.46;53.42;97079.25;5090831;27;20045;-75
2021/04/07 05:18:17;;;;;;;2.05;1.13;;;;;;;2.44;53.00;97085.38;5087308;27;20148;-75
2021/04/07 05:20:43;;;;;;;4.75;1.27;;;;;;;2.46;53.58;97087.75;5103634;28;20058;-75
2021/04/07 05:23:09;;;;;;;2.47;0.88;;;;;;;2.50;52.83;97086.38;5084358;28;20115;-75
2021/04/07 05:25:36;;;;;;;4.72;1.05;;;;;;;2.61;53.03;97087.59;5077809;28;20463;-75
2021/04/07 05:28:08;;;;;;;2.60;0.80;;;;;;;2.53;52.79;97092.91;5109023;28;20054;-75
2021/04/07 05:33:19;;;;;;;2.35;0.90;;;;;;;2.78;52.64;97103.44;5101441;28;20080;-75
2021/04/07 05:35:45;;;;;;;3.97;1.20;;;;;;;2.75;53.22;97107.16;5067782;28;20123;-76
2021/04/07 05:38:10;;;;;;;2.95;0.90;;;;;;;2.90;52.78;97112.13;5087739;28;20115;-76
2021/04/07 05:40:35;;;;;;;4.55;1.35;;;;;;;2.94;52.19;97118.47;5121974;28;20027;-76
2021/04/07 05:43:02;;;;;;;4.07;1.17;;;;;;;2.94;52.46;97121.03;5084156;28;20348;-76
2021/04/07 05:45:28;;;;;;;5.75;1.40;;;;;;;2.97;52.56;97125.78;5079193;28;20023;-76
2021/04/07 05:47:53;;;;;;;4.05;1.23;;;;;;;2.99;52.94;97131.53;5083751;28;20039;-76
2021/04/07 05:50:19;;;;;;;2.90;1.55;;;;;;;3.06;52.43;97136.66;5097525;28;20031;-76
2021/04/07 05:52:44;;;;;;;4.35;1.17;;;;;;;2.92;52.62;97132.50;5072927;28;20039;-76
2021/04/07 05:55:11;;;;;;;4.70;1.38;;;;;;;3.01;52.17;97136.47;5086964;28;20023;-76
2021/04/07 05:57:36;;;;;;;4.10;1.63;;;;;;;2.67;53.15;97138.19;5093769;28;20031;-76
2021/04/07 06:00:03;;;;;;;6.95;2.67;;;;;;;2.65;53.02;97140.16;5084898;28;20356;-76
2021/04/07 06:02:28;;;;;;;4.03;1.30;;;;;;;2.50;53.24;97145.50;5108128;28;20031;-77
2021/04/07 06:04:53;;;;;;;4.63;1.40;;;;;;;2.70;53.24;97152.44;5121302;28;20035;-76
2021/04/07 06:07:19;;;;;;;4.60;2.00;;;;;;;2.94;52.54;97146.75;5102536;28;20043;-76
2021/04/07 06:09:44;;;;;;;3.33;1.58;;;;;;;2.80;52.66;97145.16;5128475;28;20027;-76
2021/04/07 06:12:12;;;;;;;3.08;1.35;;;;;;;3.06;52.56;97159.03;5110651;28;20038;-75
2021/04/07 06:14:37;;;;;;;3.55;1.50;;;;;;;3.04;52.43;97155.88;5097083;28;20073;-76
2021/04/07 06:17:02;;;;;;;3.97;1.50;;;;;;;3.17;51.98;97154.09;5093380;28;20421;-76
2021/04/07 06:19:28;;;;;;;4.00;1.27;;;;;;;3.28;51.76;97159.66;5071122;28;20440;-76
2021/04/07 06:21:53;;;;;;;5.82;1.90;;;;;;;3.24;51.16;97168.75;5091491;28;20035;-76
2021/04/07 06:24:18;;;;;;;3.67;1.60;;;;;;;3.44;51.87;97171.31;5103818;28;20510;-76
2021/04/07 06:26:44;;;;;;;5.60;1.52;;;;;;;3.51;51.56;97160.06;5095102;28;20467;-76
2021/04/07 06:29:09;;;;;;;5.55;1.60;;;;;;;3.54;51.13;97156.28;5093963;27;20386;-76
2021/04/07 06:31:34;;;;;;;8.93;1.83;;;;;;;3.19;51.32;97162.41;5114135;27;20077;-76
2021/04/07 06:34:00;;;;;;;3.22;1.60;;;;;;;3.22;51.60;97165.56;5132823;27;20031;-76
2021/04/07 06:36:28;;;;;;;4.28;1.48;;;;;;;3.01;51.42;97164.75;5092268;27;20511;-76
2021/04/07 06:38:54;;;;;;;7.40;4.43;;;;;;;3.06;51.94;97169.31;5066227;27;20065;-76
2021/04/07 06:41:19;;;;;;;4.43;2.58;;;;;;;3.22;52.61;97176.66;5113121;27;20035;-75
2021/04/07 06:43:49;;;;;;;4.57;3.10;;;;;;;3.29;50.94;97176.66;5106068;27;20038;-76
2021/04/07 06:46:22;;;;;;;4.55;2.28;;;;;;;3.54;50.08;97182.78;5107119;27;20039;-75
2021/04/07 06:48:48;;;;;;;3.55;1.75;;;;;;;3.72;49.60;97184.00;5096745;27;20484;-76
2021/04/07 06:51:18;;;;;;;4.40;2.00;;;;;;;3.53;50.22;97193.28;5113805;27;20035;-76
2021/04/07 06:53:49;;;;;;;13.40;5.57;;;;;;;3.48;50.81;97178.47;5102438;28;20023;-77
2021/04/07 06:56:15;;;;;;;4.07;1.90;;;;;;;3.91;49.99;97185.75;5082718;27;20541;-76
2021/04/07 06:58:41;;;;;;;6.00;3.72;;;;;;;3.94;49.62;97181.94;5110630;28;20107;-76
2021/04/07 07:01:06;;;;;;;4.47;2.22;;;;;;;3.72;51.14;97192.50;5100137;27;20110;-77
2021/04/07 07:03:32;;;;;;;5.65;2.05;;;;;;;3.60;50.59;97204.41;5089636;27;20082;-77
2021/04/07 07:05:58;;;;;;;5.05;2.35;;;;;;;3.85;49.70;97201.19;5111756;27;20042;-76
2021/04/07 07:08:23;;;;;;;4.60;2.08;;;;;;;3.75;49.89;97209.31;5088709;27;20034;-76
2021/04/07 07:10:51;;;;;;;3.65;2.20;;;;;;;3.45;50.44;97224.41;5093448;27;20023;-76
2021/04/07 07:13:19;;;;;;;4.38;2.05;;;;;;;3.49;50.70;97218.63;5105924;27;20082;-76
2021/04/07 07:15:44;;;;;;;5.75;2.47;;;;;;;3.27;51.79;97215.44;5070930;27;20054;-77
2021/04/07 07:18:10;;;;;;;4.68;2.30;;;;;;;3.50;50.46;97219.44;5103051;27;20034;-77
2021/04/07 07:20:40;;;;;;;6.72;2.30;;;;;;;3.56;50.36;97224.59;5079267;27;20474;-76
2021/04/07 07:23:05;;;;;;;6.35;2.50;;;;;;;3.62;52.19;97228.16;5092591;27;20374;-76
2021/04/07 07:25:31;;;;;;;4.40;2.35;;;;;;;3.79;50.60;97225.97;5095440;27;20041;-76
2021/04/07 07:28:01;;;;;;;4.38;2.17;;;;;;;3.78;50.13;97231.31;5087156;27;20465;-76
2021/04/07 07:30:35;;;;;;;5.15;2.45;;;;;;;3.62;50.18;97238.47;5096194;27;20154;-76
2021/04/07 07:33:03;;;;;;;5.65;2.03;;;;;;;3.96;50.39;97243.59;5088995;27;20031;-76
2021/04/07 07:35:28;;;;;;;5.78;2.50;;;;;;;3.74;50.53;97242.00;5109142;27;20034;-76
2021/04/07 07:37:59;;;;;;;6.53;2.75;;;;;;;3.61;50.19;97236.84;5088715;28;20031;-76
2021/04/07 07:40:25;;;;;;;5.15;1.95;;;;;;;4.02;50.28;97245.38;5091626;28;20036;-76
2021/04/07 07:42:51;;;;;;;6.68;2.03;;;;;;;3.78;50.55;97244.97;5089713;27;20034;-76
2021/04/07 07:45:28;;;;;;;7.70;2.55;;;;;;;3.88;50.23;97244.59;5104830;27;20027;-76
2021/04/07 07:48:16;;;;;;;3.78;2.25;;;;;;;4.01;49.60;97252.31;5096214;27;20066;-77
2021/04/07 07:50:44;;;;;;;4.53;1.77;;;;;;;4.30;48.72;97234.78;5109560;28;20031;-76
2021/04/07 07:53:19;;;;;;;6.43;1.95;;;;;;;4.20;48.78;97240.38;5088836;27;20034;-76
2021/04/07 07:55:48;;;;;;;4.80;1.88;;;;;;;4.53;48.20;97246.44;5111786;27;20389;-76
2021/04/07 07:58:14;;;;;;;6.35;2.22;;;;;;;4.64;48.41;97249.19;5078867;27;20027;-76
2021/04/07 08:00:39;;;;;;;4.88;2.03;;;;;;;4.80;48.66;97252.31;5130925;27;20019;-76
2021/04/07 08:03:15;;;;;;;4.28;1.65;;;;;;;4.45;48.00;97252.63;5081444;27;20027;-76
2021/04/07 08:05:42;;;;;;;3.40;2.10;;;;;;;4.49;48.15;97256.38;5080575;27;20459;-76
2021/04/07 08:08:09;;;;;;;3.90;1.50;;;;;;;4.17;48.46;97258.81;5093345;27;20038;-76
2021/04/07 08:10:36;;;;;;;3.22;1.42;;;;;;;4.49;47.86;97267.47;5077820;27;20023;-76
2021/04/07 08:13:02;;;;;;;3.22;1.48;;;;;;;4.11;48.24;97262.19;5066222;27;20087;-76
2021/04/07 08:15:29;;;;;;;5.85;1.42;;;;;;;4.24;49.20;97261.38;5068125;27;20026;-76
2021/04/07 08:17:56;;;;;;;4.05;1.80;;;;;;;4.33;48.31;97262.75;5087611;28;20037;-75
2021/04/07 08:20:22;;;;;;;5.10;1.85;;;;;;;4.46;48.25;97259.38;5053423;28;20077;-76
2021/04/07 08:22:48;;;;;;;3.63;2.22;;;;;;;4.43;48.32;97259.75;5097539;27;20024;-76
2021/04/07 08:25:17;;;;;;;5.10;1.60;;;;;;;4.61;48.20;97261.69;5094013;28;20023;-76
2021/04/07 08:27:42;;;;;;;8.02;1.67;;;;;;;4.74;47.85;97259.06;5084912;28;20141;-76
2021/04/07 08:30:10;;;;;;;5.00;1.80;;;;;;;4.20;48.67;97253.28;5084596;28;20114;-76
2021/04/07 08:32:36;;;;;;;5.72;1.88;;;;;;;4.20;48.20;97270.50;5070840;28;20091;-76
2021/04/07 08:35:04;;;;;;;5.35;2.08;;;;;;;4.43;49.01;97267.50;5106832;28;20027;-76
2021/04/07 08:37:32;;;;;;;3.95;1.85;;;;;;;4.38;48.57;97275.03;5083061;28;20038;-76
2021/04/07 08:40:09;;;;;;;6.32;1.90;;;;;;;4.20;48.38;97280.81;5074469;28;20035;-76
2021/04/07 08:42:34;;;;;;;6.63;2.00;;;;;;;4.38;48.27;97262.94;5127090;27;20079;-76
2021/04/07 08:45:05;;;;;;;2.97;1.50;;;;;;;4.06;49.17;97278.28;5087674;27;20468;-76
2021/04/07 08:47:49;;;;;;;3.95;1.90;;;;;;;4.31;49.21;97267.31;5076958;27;20035;-76
2021/04/07 08:50:15;;;;;;;5.57;1.73;;;;;;;4.20;49.45;97281.63;5113504;27;20114;-76
2021/04/07 08:52:45;;;;;;;6.10;2.22;;;;;;;4.05;50.76;97288.78;5077710;27;20176;-76
2021/04/07 08:55:19;;;;;;;6.53;2.67;;;;;;;4.47;49.09;97290.09;5085956;27;20110;-76
2021/04/07 08:58:00;;;;;;;4.95;2.65;;;;;;;4.21;49.55;97285.75;5086986;27;20035;-77
2021/04/07 09:00:28;;;;;;;6.45;3.20;;;;;;;4.45;48.79;97288.69;5086809;27;20039;-76
2021/04/07 09:03:10;;;;;;;6.85;2.80;;;;;;;4.47;48.67;97292.69;5109655;27;20027;-76
2021/04/07 09:05:42;;;;;;;4.38;2.80;;;;;;;4.52;48.49;97284.31;5086236;28;20035;-76
2021/04/07 09:08:10;;;;;;;7.10;2.78;;;;;;;4.95;49.77;97294.13;5107967;28;20038;-76
2021/04/07 09:10:41;;;;;;;7.93;2.30;;;;;;;4.77;48.39;97287.03;5129261;27;20027;-76
2021/04/07 09:13:08;;;;;;;7.07;2.85;;;;;;;4.95;47.85;97301.84;5102322;27;20051;-76
2021/04/07 09:15:33;;;;;;;6.32;2.33;;;;;;;5.02;48.66;97304.38;5104742;28;20057;-76
2021/04/07 09:17:59;;;;;;;5.57;2.17;;;;;;;5.03;48.47;97295.66;5095156;27;20502;-76
2021/04/07 09:20:39;;;;;;;5.38;2.17;;;;;;;4.80;48.92;97291.78;5059674;28;20123;-76
2021/04/07 09:23:09;;;;;;;6.53;2.20;;;;;;;4.66;49.18;97280.72;5126479;27;20055;-76
2021/04/07 09:25:35;;;;;;;4.70;2.20;;;;;;;5.02;48.48;97288.91;5105338;28;20073;-76
2021/04/07 09:28:06;;;;;;;6.13;2.40;;;;;;;4.83;49.16;97296.53;5093557;28;20517;-76
2021/04/07 09:30:45;;;;;;;4.03;2.25;;;;;;;4.68;49.66;97294.19;5110726;28;20035;-76
2021/04/07 09:33:13;;;;;;;6.50;2.40;;;;;;;4.90;47.76;97287.97;5063045;28;20111;-76
2021/04/07 09:35:54;;;;;;;3.75;1.98;;;;;;;4.86;49.59;97283.22;5095384;28;20391;-76
2021/04/07 09:38:19;;;;;;;4.72;2.03;;;;;;;5.50;48.06;97279.91;5101531;28;20383;-76
2021/04/07 09:40:45;;;;;;;4.68;2.60;;;;;;;5.55;48.00;97280.88;5096513;28;20031;-76
2021/04/07 09:43:11;;;;;;;5.40;1.73;;;;;;;5.43;48.19;97275.59;5089437;28;20063;-76
2021/04/07 09:45:36;;;;;;;5.22;2.08;;;;;;;5.79;46.81;97279.31;5091483;28;20446;-76
2021/04/07 09:48:03;;;;;;;7.72;2.13;;;;;;;5.91;47.10;97276.03;5076545;28;20059;-76
2021/04/07 09:50:29;;;;;;;3.92;2.13;;;;;;;5.80;46.63;97287.84;5058273;28;20332;-76
2021/04/07 09:52:56;;;;;;;6.78;2.30;;;;;;;5.89;46.94;97275.47;5071927;28;20134;-76
2021/04/07 09:55:22;;;;;;;5.05;2.03;;;;;;;5.78;47.10;97275.13;5061424;28;20401;-76
2021/04/07 09:58:02;;;;;;;4.80;2.38;;;;;;;5.27;47.93;97286.41;5088702;28;20020;-76
2021/04/07 10:00:33;;;;;;;4.63;2.47;;;;;;;5.25;46.89;97289.19;5090769;28;20139;-75
2021/04/07 10:03:00;;;;;;;4.85;1.90;;;;;;;5.32;47.02;97302.06;5091350;27;20031;-76
2021/04/07 10:05:27;;;;;;;4.25;2.28;;;;;;;5.20;48.95;97296.75;5079873;27;20088;-76
2021/04/07 10:07:53;;;;;;;5.82;1.95;;;;;;;5.19;47.99;97305.53;5107145;27;20027;-77
2021/04/07 10:10:22;;;;;;;5.35;1.83;;;;;;;5.29;47.14;97296.53;5074315;28;20115;-77
2021/04/07 10:12:47;;;;;;;4.10;1.90;;;;;;;5.24;47.49;97318.59;5109026;27;20034;-76
2021/04/07 10:15:17;;;;;;;6.05;1.85;;;;;;;4.69;49.18;97318.19;5111869;27;20027;-76
2021/04/07 10:17:43;;;;;;;3.58;1.80;;;;;;;4.84;49.65;97312.81;5112435;27;20488;-76
2021/04/07 10:20:11;;;;;;;6.22;1.70;;;;;;;4.81;49.34;97320.94;5059523;28;20038;-76
2021/04/07 10:22:38;;;;;;;3.75;1.80;;;;;;;5.01;50.44;97320.88;5094186;27;20027;-76
2021/04/07 10:25:16;;;;;;;4.35;2.40;;;;;;;4.39;51.99;97331.56;5107755;28;20077;-76
2021/04/07 10:27:44;;;;;;;5.35;1.90;;;;;;;4.55;51.78;97350.97;5073718;27;20458;-76
2021/04/07 10:30:12;;;;;;;10.40;3.00;;;;;;;4.08;53.80;97350.22;5062435;28;20028;-76
2021/04/07 10:32:46;;;;;;;4.47;2.75;;;;;;;3.98;55.26;97348.03;5088685;27;20058;-76
2021/04/07 10:35:24;;;;;;;6.22;2.42;;;;;;;3.89;55.16;97356.91;5085175;27;20079;-76
2021/04/07 10:38:07;;;;;;;7.00;2.80;;;;;;;4.21;55.48;97350.19;5088782;27;20035;-76
2021/04/07 10:40:36;;;;;;;5.25;2.15;;;;;;;4.23;56.64;97348.22;5094417;27;20044;-76
2021/04/07 10:43:14;;;;;;;7.60;2.97;;;;;;;3.88;55.55;97368.22;5059186;28;20599;-76
2021/04/07 10:45:42;;;;;;;6.43;1.70;;;;;;;4.26;55.34;97365.06;5102588;28;20483;-76
2021/04/07 10:48:09;;;;;;;5.57;2.70;;;;;;;4.21;55.45;97357.94;5068142;28;20430;-76
2021/04/07 10:50:39;;;;;;;11.45;3.45;;;;;;;4.13;55.93;97353.00;5092224;27;20486;-76
2021/04/07 10:53:06;;;;;;;6.72;2.13;;;;;;;4.01;56.30;97359.69;5078601;27;20348;-76
2021/04/07 10:55:34;;;;;;;5.38;2.35;;;;;;;3.80;58.62;97353.75;5094449;27;20529;-77
2021/04/07 10:58:01;;;;;;;7.43;2.83;;;;;;;3.52;59.59;97362.41;5095201;27;20035;-76
2021/04/07 11:00:38;;;;;;;5.40;2.03;;;;;;;3.27;60.51;97374.19;5093953;27;20061;-76
2021/04/07 11:03:06;;;;;;;4.50;2.28;;;;;;;3.37;60.00;97365.13;5102426;27;20020;-76
2021/04/07 11:05:45;;;;;;;6.43;2.00;;;;;;;3.54;59.43;97375.09;5094244;27;20043;-76
2021/04/07 11:08:16;;;;;;;4.60;1.95;;;;;;;3.74;58.84;97383.66;5107088;27;20031;-76
2021/04/07 11:10:52;;;;;;;2.95;1.48;;;;;;;3.29;58.55;97387.66;5109411;27;20039;-76
2021/04/07 11:13:19;;;;;;;6.88;2.13;;;;;;;3.30;59.85;97390.06;5094995;27;20041;-76
2021/04/07 11:15:48;;;;;;;3.80;2.22;;;;;;;3.59;58.50;97390.75;5094557;27;20426;-76
2021/04/07 11:18:15;;;;;;;5.15;1.70;;;;;;;3.93;58.29;97392.41;5079481;27;20042;-76
2021/04/07 11:20:43;;;;;;;7.05;2.38;;;;;;;3.72;58.59;97383.06;5082173;27;20122;-76
2021/04/07 11:23:09;;;;;;;4.75;2.03;;;;;;;3.76;58.55;97380.88;5111336;27;20035;-75
2021/04/07 11:25:36;;;;;;;5.47;1.95;;;;;;;3.95;59.61;97381.91;5085015;27;20070;-76
2021/04/07 11:28:03;;;;;;;7.20;2.25;;;;;;;3.80;59.16;97379.50;5111214;27;20103;-76
2021/04/07 11:30:33;;;;;;;3.55;1.48;;;;;;;3.79;58.97;97377.13;5087333;27;20339;-76
2021/04/07 11:33:05;;;;;;;4.43;1.45;;;;;;;3.82;59.58;97387.03;5063724;27;20490;-76
2021/04/07 11:38:08;;;;;;;4.28;1.83;;;;;;;3.93;59.26;97391.63;5088375;27;20324;-76
2021/04/07 11:44:24;;;;;;;4.47;1.75;;;;;;;3.80;59.35;97389.78;5105509;27;19916;-76
2021/04/07 11:45:50;;;;;;;4.65;1.70;;;;;;;3.69;58.48;97383.44;5087049;27;20047;-77
2021/04/07 11:48:19;;;;;;;4.78;1.95;;;;;;;3.60;58.97;97386.38;5093381;27;20118;-76
2021/04/07 11:50:46;;;;;;;3.40;1.67;;;;;;;3.76;58.37;97396.34;5105858;27;20626;-76